Time;durP1;ratioP1;P1;durP2;ratioP2;P2;SDS_P1;SDS_P2;PMS_P1;PMS_P2;Temp;Humidity;BMP_temperature;BMP_pressure;BME280_temperature;BME280_humidity;BME280_pressure;Samples;Min_cycle;Max_cycle;Signal;HPM_P1;HPM_P2
2022/05/08 18:14:40;;;;;;;;;28.67;28.00;23.50;36.40;;;;;;5129687;27;13440;-69
2022/05/08 18:17:06;;;;;;;;;25.67;25.67;23.20;35.30;;;;;;5123189;28;8799;-71
2022/05/08 18:19:32;;;;;;;;;20.00;20.00;24.00;34.40;;;;;;5104881;28;8833;-72
2022/05/08 18:21:57;;;;;;;;;17.00;17.00;24.80;32.40;;;;;;5092883;27;8761;-75
2022/05/08 18:24:23;;;;;;;;;13.00;13.00;25.40;30.00;;;;;;5132665;27;9413;-72
2022/05/08 18:26:49;;;;;;;;;18.33;18.33;25.80;29.40;;;;;;5132717;27;8784;-72
2022/05/08 18:29:15;;;;;;;;;19.67;19.67;26.20;29.10;;;;;;5132499;27;9307;-72
2022/05/08 18:31:41;;;;;;;;;16.33;16.33;26.40;29.20;;;;;;5132545;27;8766;-72
2022/05/08 18:34:07;;;;;;;;;18.67;18.67;26.60;28.80;;;;;;5128936;27;8800;-71
2022/05/08 18:36:36;;;;;;;;;56.33;47.67;26.70;29.00;;;;;;5111331;28;8760;-74
2022/05/08 18:39:03;;;;;;;;;28.00;28.00;26.90;29.10;;;;;;5111434;28;8792;-78
2022/05/08 18:41:30;;;;;;;;;31.67;31.00;27.20;28.80;;;;;;5104444;28;8778;-75
2022/05/08 18:43:56;;;;;;;;;29.67;29.67;27.40;28.40;;;;;;5107446;28;8810;-77
2022/05/08 18:46:24;;;;;;;;;16.00;16.00;27.50;28.00;;;;;;5118226;27;8791;-76
2022/05/08 18:49:35;;;;;;;;;18.00;18.00;27.50;27.90;;;;;;5113943;27;8876;-76
2022/05/08 18:51:38;;;;;;;;;20.67;20.67;27.60;28.60;;;;;;5120521;27;8804;-76
2022/05/08 18:54:04;;;;;;;;;16.67;16.67;27.50;28.50;;;;;;5131982;27;8813;-74
2022/05/08 18:56:31;;;;;;;;;45.67;39.67;27.50;28.40;;;;;;5131769;27;8846;-76
2022/05/08 18:58:57;;;;;;;;;64.25;52.75;27.50;28.70;;;;;;5132137;27;8746;-74
2022/05/08 19:01:23;;;;;;;;;46.75;40.50;27.40;28.40;;;;;;5132478;27;8761;-76
2022/05/08 19:03:49;;;;;;;;;62.00;51.00;27.40;28.50;;;;;;5132091;27;8776;-77
2022/05/08 19:06:18;;;;;;;;;26.00;26.00;27.50;28.70;;;;;;5117368;27;8798;-76
2022/05/08 19:08:43;;;;;;;;;41.00;36.67;27.50;28.50;;;;;;5101537;28;8767;-81
2022/05/08 19:11:10;;;;;;;;;28.67;28.67;27.50;28.40;;;;;;5093336;28;8920;-80
2022/05/08 19:13:38;;;;;;;;;32.00;31.00;27.40;28.40;;;;;;5124276;27;8821;-79
2022/05/08 19:16:04;;;;;;;;;30.00;29.67;27.20;27.60;;;;;;5131767;27;8772;-79
2022/05/08 19:18:30;;;;;;;;;31.00;31.00;27.10;27.80;;;;;;5131594;27;8915;-78
2022/05/08 19:20:56;;;;;;;;;27.33;27.33;27.00;28.30;;;;;;5113184;27;8785;-78
2022/05/08 19:23:23;;;;;;;;;16.67;16.67;26.90;28.00;;;;;;5130907;27;8867;-77
2022/05/08 19:25:49;;;;;;;;;17.00;17.00;26.90;27.70;;;;;;5119201;28;8768;-80
2022/05/08 19:28:15;;;;;;;;;15.67;15.67;26.80;27.90;;;;;;5117901;28;11416;-83
2022/05/08 19:30:41;;;;;;;;;15.00;15.00;26.80;27.90;;;;;;5117568;28;11502;-80
2022/05/08 19:38:36;;;;;;;;;12.00;12.00;26.30;28.20;;;;;;5095861;28;11394;-76
2022/05/08 19:41:02;;;;;;;;;13.00;13.00;26.30;28.90;;;;;;5097002;28;8807;-76
2022/05/08 19:43:27;;;;;;;;;12.67;12.67;26.20;29.30;;;;;;5106657;28;8926;-78
2022/05/08 19:45:54;;;;;;;;;16.33;16.33;26.20;29.60;;;;;;5106867;28;9643;-83
2022/05/08 19:48:20;;;;;;;;;52.50;45.00;26.20;29.40;;;;;;5116154;28;8785;-75
2022/05/08 19:50:46;;;;;;;;;51.50;44.25;26.10;29.70;;;;;;5117351;28;8787;-79
2022/05/08 19:53:11;;;;;;;;;33.00;32.00;26.30;29.40;;;;;;5116755;28;8970;-85
2022/05/08 19:55:39;;;;;;;;;35.00;33.00;26.30;29.40;;;;;;5099206;28;8804;-81
2022/05/08 19:58:06;;;;;;;;;21.33;21.33;26.30;29.40;;;;;;5117220;28;8786;-80
2022/05/08 20:00:32;;;;;;;;;18.33;18.33;26.40;29.60;;;;;;5117417;28;8785;-81
2022/05/08 20:03:00;;;;;;;;;21.33;21.33;26.50;29.20;;;;;;5117276;28;8824;-79
2022/05/08 20:05:26;;;;;;;;;19.00;19.00;26.60;29.20;;;;;;5116946;28;8765;-79
2022/05/08 20:07:52;;;;;;;;;25.67;25.67;26.50;29.30;;;;;;5116384;28;8788;-77
2022/05/08 20:10:20;;;;;;;;;62.50;52.00;26.40;29.30;;;;;;5116980;28;8758;-77
2022/05/08 20:12:47;;;;;;;;;65.50;53.75;26.40;29.30;;;;;;5116875;28;8809;-79
2022/05/08 20:15:14;;;;;;;;;210.20;204.40;26.40;29.30;;;;;;5117062;28;8772;-78
2022/05/08 20:17:41;;;;;;;;;18.67;18.67;26.40;29.50;;;;;;5116787;28;8769;-84
2022/05/08 20:22:52;;;;;;;;;29.00;29.00;26.50;29.00;;;;;;5116158;28;8805;-75
2022/05/08 20:25:18;;;;;;;;;24.67;24.67;26.30;29.10;;;;;;5116625;28;8842;-75
2022/05/08 20:27:44;;;;;;;;;29.67;29.67;26.30;29.40;;;;;;5116841;28;8765;-77
2022/05/08 20:30:10;;;;;;;;;30.00;30.00;26.20;29.20;;;;;;5117331;28;8734;-79
2022/05/08 20:32:37;;;;;;;;;23.00;23.00;26.20;29.40;;;;;;5116576;28;8765;-75
2022/05/08 20:35:03;;;;;;;;;47.75;41.00;26.10;29.20;;;;;;5116730;28;8753;-77
2022/05/08 20:37:29;;;;;;;;;37.00;34.00;26.10;29.20;;;;;;5114901;28;8769;-79
2022/05/08 20:39:55;;;;;;;;;29.00;28.67;26.10;29.40;;;;;;5116395;28;8774;-83
2022/05/08 20:42:21;;;;;;;;;28.00;28.00;26.10;29.10;;;;;;5116121;28;8833;-83
2022/05/08 20:44:47;;;;;;;;;28.00;28.00;26.10;29.10;;;;;;5116436;28;8777;-84
2022/05/08 20:47:13;;;;;;;;;26.33;26.33;26.10;29.20;;;;;;5116237;28;9387;-85
2022/05/08 20:49:38;;;;;;;;;36.67;34.00;26.00;29.60;;;;;;5116488;28;8754;-79
2022/05/08 20:52:05;;;;;;;;;48.00;41.33;26.00;29.90;;;;;;5115839;28;8761;-81
2022/05/08 20:54:31;;;;;;;;;30.33;30.33;26.00;30.00;;;;;;5105651;28;8784;-84
2022/05/08 20:56:59;;;;;;;;;30.33;30.33;25.90;30.50;;;;;;5087156;28;8797;-81
2022/05/08 20:59:25;;;;;;;;;23.00;23.00;25.90;30.00;;;;;;5099956;28;8799;-85
2022/05/08 21:01:51;;;;;;;;;23.67;23.67;25.70;30.40;;;;;;5076940;28;8857;-73
2022/05/08 21:04:17;;;;;;;;;27.33;27.33;25.80;30.80;;;;;;5095340;28;8795;-78
2022/05/08 21:09:27;;;;;;;;;280.80;276.00;25.60;30.40;;;;;;5095451;28;8731;-78
2022/05/08 21:11:55;;;;;;;;;148.50;145.50;25.60;30.80;;;;;;5095359;28;8744;-77
2022/05/08 21:14:21;;;;;;;;;23.00;23.00;25.60;30.70;;;;;;5077043;28;8843;-75
2022/05/08 21:16:47;;;;;;;;;20.00;20.00;25.50;30.40;;;;;;5095253;28;8767;-77
2022/05/08 21:19:13;;;;;;;;;54.75;47.00;25.40;30.70;;;;;;5095174;28;8786;-78
2022/05/08 21:21:39;;;;;;;;;68.75;56.25;25.50;30.60;;;;;;5095066;28;8752;-76
2022/05/08 21:24:06;;;;;;;;;26.00;26.00;25.50;30.30;;;;;;5094994;28;8799;-75
2022/05/08 21:26:35;;;;;;;;;22.67;22.67;25.50;30.40;;;;;;5095009;28;8779;-75
2022/05/08 21:29:02;;;;;;;;;26.67;26.67;25.50;31.20;;;;;;5095285;28;8764;-76
2022/05/08 21:31:28;;;;;;;;;25.00;25.00;25.20;30.80;;;;;;5095156;28;8841;-76
2022/05/08 21:33:54;;;;;;;;;25.67;25.67;25.10;30.70;;;;;;5094951;28;9425;-76
2022/05/08 21:36:20;;;;;;;;;27.33;27.33;25.00;30.90;;;;;;5088514;28;8787;-77
2022/05/08 21:38:45;;;;;;;;;23.67;23.67;24.70;31.20;;;;;;5075682;28;8774;-76
2022/05/08 21:41:11;;;;;;;;;26.00;26.00;24.70;31.70;;;;;;5085662;28;8776;-78
2022/05/08 21:43:40;;;;;;;;;24.33;24.33;24.60;32.70;;;;;;5086462;28;8820;-80
2022/05/08 21:46:06;;;;;;;;;27.00;27.00;24.50;33.50;;;;;;5074651;28;8872;-78
2022/05/08 21:48:33;;;;;;;;;24.33;24.33;24.30;32.40;;;;;;5069944;28;8902;-77
2022/05/08 21:51:03;;;;;;;;;23.33;23.33;24.30;32.40;;;;;;5057709;28;8808;-75
2022/05/08 21:53:30;;;;;;;;;23.00;23.00;24.20;32.00;;;;;;5084124;28;8786;-75
2022/05/08 21:55:56;;;;;;;;;24.00;24.00;24.10;32.10;;;;;;5091635;28;8773;-75
2022/05/08 21:58:22;;;;;;;;;24.00;23.33;24.10;32.10;;;;;;5114957;28;8781;-76
2022/05/08 22:00:51;;;;;;;;;27.00;27.00;24.10;32.30;;;;;;5114744;28;8877;-75
2022/05/08 22:03:17;;;;;;;;;18.00;18.00;24.00;32.30;;;;;;5115113;28;8773;-76
2022/05/08 22:05:43;;;;;;;;;20.67;20.67;23.90;32.50;;;;;;5079091;28;8849;-75
2022/05/08 22:08:10;;;;;;;;;25.67;25.67;24.00;32.40;;;;;;5092387;28;8776;-73
2022/05/08 22:10:35;;;;;;;;;28.00;28.00;23.80;32.40;;;;;;5094737;28;9421;-74
2022/05/08 22:13:01;;;;;;;;;26.00;26.00;23.80;33.20;;;;;;5101546;28;8844;-74
2022/05/08 22:15:27;;;;;;;;;28.33;28.33;23.80;33.20;;;;;;5115077;28;8781;-75
2022/05/08 22:17:53;;;;;;;;;26.00;26.00;23.70;33.40;;;;;;5114846;28;8849;-74
2022/05/08 22:20:19;;;;;;;;;32.67;32.00;23.70;34.10;;;;;;5114812;28;8754;-74
2022/05/08 22:22:45;;;;;;;;;28.33;28.33;23.60;34.70;;;;;;5115017;28;8877;-75
2022/05/08 22:25:10;;;;;;;;;27.00;27.00;23.60;34.70;;;;;;5114652;28;9487;-74
2022/05/08 22:27:36;;;;;;;;;30.67;30.67;23.50;34.60;;;;;;5114835;28;8827;-75
2022/05/08 22:30:03;;;;;;;;;27.67;27.67;23.40;34.60;;;;;;5114723;28;8784;-74
2022/05/08 22:32:29;;;;;;;;;23.33;23.33;23.40;35.10;;;;;;5114983;28;8780;-73
2022/05/08 22:34:55;;;;;;;;;34.00;33.00;23.40;35.40;;;;;;5114770;28;8742;-73
2022/05/08 22:37:20;;;;;;;;;34.00;32.00;23.30;35.20;;;;;;5114669;28;8804;-73
2022/05/08 22:39:46;;;;;;;;;39.33;35.33;23.20;35.20;;;;;;5090017;28;8792;-76
2022/05/08 22:42:12;;;;;;;;;43.67;38.67;23.30;35.10;;;;;;5073855;28;8790;-72
2022/05/08 22:44:38;;;;;;;;;45.33;39.33;23.20;35.20;;;;;;5073869;28;8806;-77
2022/05/08 22:47:04;;;;;;;;;38.33;35.67;23.20;35.20;;;;;;5073869;28;8892;-72
2022/05/08 22:49:30;;;;;;;;;31.00;31.00;23.10;34.80;;;;;;5079350;28;8800;-72
2022/05/08 22:51:56;;;;;;;;;28.33;28.00;23.10;35.80;;;;;;5085743;28;8787;-73
2022/05/08 22:54:21;;;;;;;;;24.67;24.67;23.10;34.40;;;;;;5102957;28;8813;-74
2022/05/08 22:56:52;;;;;;;;;27.00;27.00;23.20;34.40;;;;;;5114802;28;9419;-76
2022/05/08 22:59:19;;;;;;;;;33.33;33.00;23.10;34.40;;;;;;5114737;28;8812;-73
2022/05/08 23:01:45;;;;;;;;;21.67;21.67;23.10;34.90;;;;;;5118414;28;8781;-73
2022/05/08 23:04:11;;;;;;;;;36.00;33.67;23.00;35.50;;;;;;5118454;28;8797;-72
2022/05/08 23:06:36;;;;;;;;;31.33;31.33;22.90;35.60;;;;;;5118468;28;8777;-73
2022/05/08 23:09:03;;;;;;;;;41.00;37.00;22.80;35.90;;;;;;5118172;28;8892;-74
2022/05/08 23:11:28;;;;;;;;;29.33;29.33;22.80;35.90;;;;;;5118504;28;8784;-73
2022/05/08 23:13:54;;;;;;;;;28.33;27.67;22.80;35.50;;;;;;5118021;28;8833;-74
2022/05/08 23:16:20;;;;;;;;;29.67;29.67;22.90;35.80;;;;;;5118082;28;8758;-74
2022/05/08 23:18:46;;;;;;;;;35.33;33.67;22.80;35.50;;;;;;5118030;28;8758;-75
2022/05/08 23:21:12;;;;;;;;;26.00;25.33;22.70;36.00;;;;;;5118260;28;9535;-74
2022/05/08 23:23:39;;;;;;;;;28.33;28.33;22.70;35.60;;;;;;5099647;28;8797;-73
2022/05/08 23:26:05;;;;;;;;;26.67;26.67;22.70;35.90;;;;;;5089997;28;8786;-75
2022/05/08 23:28:33;;;;;;;;;30.00;30.00;22.60;35.80;;;;;;5096679;28;8767;-75
2022/05/08 23:31:00;;;;;;;;;29.00;29.00;22.60;36.10;;;;;;5097132;28;9464;-74
2022/05/08 23:33:38;;;;;;;;;25.67;25.67;22.50;36.20;;;;;;5079077;28;8812;-74
2022/05/08 23:36:10;;;;;;;;;29.67;29.67;22.60;36.20;;;;;;5077183;28;8770;-76
2022/05/08 23:38:36;;;;;;;;;28.33;28.33;22.50;36.80;;;;;;5077126;28;8785;-74
2022/05/08 23:41:02;;;;;;;;;25.33;25.33;22.50;36.70;;;;;;5076803;28;8900;-73
2022/05/08 23:43:27;;;;;;;;;29.33;29.33;22.40;36.90;;;;;;5077024;28;8836;-75
2022/05/08 23:45:53;;;;;;;;;27.67;27.67;22.40;36.80;;;;;;5076928;28;8782;-75
2022/05/08 23:48:19;;;;;;;;;29.33;28.67;22.30;36.90;;;;;;5076724;28;8765;-74
2022/05/08 23:50:45;;;;;;;;;26.33;26.33;22.30;37.00;;;;;;5076802;28;8867;-73
2022/05/08 23:53:10;;;;;;;;;26.33;26.33;22.20;37.20;;;;;;5076955;28;8871;-74
2022/05/08 23:55:37;;;;;;;;;29.00;28.00;22.20;37.60;;;;;;5076883;28;8871;-73
2022/05/08 23:58:03;;;;;;;;;28.00;27.67;22.30;37.50;;;;;;5076795;28;8820;-75
